Time;durP1;ratioP1;P1;durP2;ratioP2;P2;SDS_P1;SDS_P2;PMS_P1;PMS_P2;Temp;Humidity;BMP_temperature;BMP_pressure;BME280_temperature;BME280_humidity;BME280_pressure;Samples;Min_cycle;Max_cycle;Signal;HPM_P1;HPM_P2
2022/05/03 00:02:01;;;;;;;21.88;18.15;;;10.90;86.30;;;;;;4978336;28;20049;-75
2022/05/03 00:04:48;;;;;;;20.88;18.55;;;10.80;86.40;;;;;;4944733;28;20054;-75
2022/05/03 00:07:55;;;;;;;27.85;20.15;;;10.80;86.40;;;;;;4953853;28;20054;-75
2022/05/03 00:11:02;;;;;;;25.65;20.13;;;10.80;86.50;;;;;;4948919;28;20050;-75
2022/05/03 00:13:55;;;;;;;25.00;20.55;;;10.70;86.60;;;;;;4941798;28;20058;-75
2022/05/03 00:16:24;;;;;;;30.45;21.27;;;10.70;86.60;;;;;;4948415;28;20555;-75
2022/05/03 00:18:52;;;;;;;32.83;22.30;;;10.70;86.60;;;;;;4949719;28;20074;-74
2022/05/03 00:21:21;;;;;;;27.98;21.30;;;10.70;86.70;;;;;;4959999;28;20058;-74
2022/05/03 00:23:48;;;;;;;29.30;21.25;;;10.70;86.80;;;;;;4960967;28;20054;-74
2022/05/03 00:26:16;;;;;;;29.02;22.67;;;10.70;86.80;;;;;;4946855;28;20102;-74
2022/05/03 00:28:45;;;;;;;35.50;23.05;;;10.60;86.80;;;;;;4928907;29;20047;-74
2022/05/03 00:31:14;;;;;;;30.65;22.23;;;10.60;86.90;;;;;;4933806;29;20058;-73
2022/05/03 00:33:42;;;;;;;31.00;22.25;;;10.60;86.90;;;;;;4961107;28;20047;-75
2022/05/03 00:36:10;;;;;;;34.90;22.95;;;10.60;86.90;;;;;;4956468;28;20425;-74
2022/05/03 00:38:38;;;;;;;31.02;22.55;;;10.60;87.00;;;;;;4969222;28;20057;-74
2022/05/03 00:41:10;;;;;;;30.30;22.75;;;10.60;87.00;;;;;;4992197;28;20183;-74
2022/05/03 00:43:46;;;;;;;30.05;20.10;;;10.60;87.00;;;;;;5055684;28;21626;-74
2022/05/03 00:46:18;;;;;;;30.52;19.52;;;10.60;87.10;;;;;;5049658;28;20048;-73
2022/05/03 00:48:59;;;;;;;27.27;19.60;;;10.50;87.00;;;;;;5054842;28;20475;-74
2022/05/03 00:52:05;;;;;;;27.92;19.95;;;10.50;87.00;;;;;;5033964;28;20498;-74
2022/05/03 00:54:52;;;;;;;26.55;19.30;;;10.50;87.10;;;;;;5056918;28;20044;-73
2022/05/03 00:57:24;;;;;;;29.77;20.20;;;10.40;87.00;;;;;;5073987;28;20482;-73
2022/05/03 01:00:05;;;;;;;28.23;20.30;;;10.40;87.00;;;;;;5044476;28;20067;-73
2022/05/03 01:02:59;;;;;;;29.48;21.42;;;10.40;87.00;;;;;;5070454;28;20394;-73
2022/05/03 01:05:37;;;;;;;26.95;18.63;;;10.40;87.10;;;;;;5062617;28;20529;-73
2022/05/03 01:08:11;;;;;;;27.92;19.83;;;10.30;87.00;;;;;;5067931;28;20049;-74
2022/05/03 01:11:09;;;;;;;28.73;19.00;;;10.30;87.10;;;;;;5053868;28;20060;-73
2022/05/03 01:13:45;;;;;;;26.85;19.65;;;10.30;87.00;;;;;;5056745;28;20123;-74
2022/05/03 01:16:27;;;;;;;28.23;20.08;;;10.30;87.00;;;;;;5040923;28;20041;-73
2022/05/03 01:19:30;;;;;;;31.80;20.60;;;10.30;87.00;;;;;;5054242;28;20045;-73
2022/05/03 01:22:32;;;;;;;30.38;21.30;;;10.20;87.10;;;;;;5066197;28;20517;-73
2022/05/03 01:25:21;;;;;;;34.40;22.30;;;10.20;87.00;;;;;;5053946;28;20040;-73
2022/05/03 01:28:07;;;;;;;32.42;22.52;;;10.20;87.10;;;;;;5077856;28;20044;-73
2022/05/03 01:30:37;;;;;;;32.10;21.33;;;10.20;87.10;;;;;;5053243;28;20052;-73
2022/05/03 01:33:09;;;;;;;35.60;21.90;;;10.10;87.10;;;;;;5054890;28;20040;-74
2022/05/03 01:35:39;;;;;;;31.55;21.30;;;10.10;87.10;;;;;;5053571;28;20044;-74
2022/05/03 01:38:22;;;;;;;39.22;21.70;;;10.10;87.20;;;;;;5063255;28;20048;-74
2022/05/03 01:41:11;;;;;;;31.60;22.08;;;10.10;87.20;;;;;;5057064;28;20402;-74
2022/05/03 01:44:03;;;;;;;33.28;20.77;;;10.00;87.20;;;;;;5053615;28;20498;-74
2022/05/03 01:46:35;;;;;;;37.88;22.73;;;10.00;87.20;;;;;;5061417;28;20056;-74
2022/05/03 01:52:25;;;;;;;35.85;22.52;;;9.90;87.20;;;;;;5073099;28;20413;-74
2022/05/03 01:55:30;;;;;;;30.73;21.67;;;9.90;87.20;;;;;;5072783;28;20048;-74
2022/05/03 01:58:31;;;;;;;36.88;22.13;;;9.80;87.20;;;;;;5064196;28;20040;-74
2022/05/03 02:01:05;;;;;;;33.88;22.45;;;9.80;87.30;;;;;;5042031;28;20066;-74
2022/05/03 02:03:45;;;;;;;31.77;22.33;;;9.80;87.20;;;;;;5040579;28;20041;-74
2022/05/03 02:06:14;;;;;;;30.50;20.77;;;9.80;87.30;;;;;;5035913;28;20398;-73
2022/05/03 02:08:45;;;;;;;32.33;21.48;;;9.70;87.30;;;;;;5053192;28;20052;-74
2022/05/03 02:11:40;;;;;;;33.72;22.73;;;9.70;87.30;;;;;;5053412;28;20044;-74
2022/05/03 02:16:58;;;;;;;40.38;22.67;;;9.60;87.30;;;;;;5089716;28;20040;-74
2022/05/03 02:19:56;;;;;;;34.70;21.40;;;9.60;87.30;;;;;;5083631;28;20406;-74
2022/05/03 02:22:46;;;;;;;36.38;21.75;;;9.60;87.30;;;;;;5071683;28;20190;-74
2022/05/03 02:25:35;;;;;;;36.55;23.80;;;9.50;87.30;;;;;;5089397;28;20488;-75
2022/05/03 02:28:13;;;;;;;37.17;26.13;;;9.50;87.40;;;;;;5091360;28;20036;-74
2022/05/03 02:30:43;;;;;;;43.13;27.80;;;9.40;87.30;;;;;;5078301;28;20486;-74
2022/05/03 02:33:18;;;;;;;41.35;27.70;;;9.30;87.30;;;;;;5086344;28;20048;-74
2022/05/03 02:35:54;;;;;;;40.95;27.55;;;9.30;87.40;;;;;;5074465;28;20045;-74
2022/05/03 02:38:36;;;;;;;38.83;27.15;;;9.30;87.40;;;;;;5087587;28;20063;-74
2022/05/03 02:41:08;;;;;;;36.30;26.10;;;9.30;87.40;;;;;;5093207;28;20051;-74
2022/05/03 02:43:38;;;;;;;39.75;26.77;;;9.30;87.40;;;;;;5073164;28;20506;-74
2022/05/03 02:46:31;;;;;;;37.80;28.00;;;9.30;87.40;;;;;;5075135;28;20048;-74
2022/05/03 02:49:05;;;;;;;44.88;30.13;;;9.30;87.50;;;;;;5074825;28;20044;-74
2022/05/03 02:51:39;;;;;;;;;;;9.30;87.50;;;;;;5088515;28;20470;-75
2022/05/03 02:54:38;;;;;;;45.38;29.90;;;9.30;87.50;;;;;;5070607;28;19924;-74
2022/05/03 02:57:09;;;;;;;37.78;27.52;;;9.30;87.40;;;;;;5080348;28;20517;-73
2022/05/03 03:03:10;;;;;;;38.05;27.60;;;9.30;87.40;;;;;;5081031;28;20052;-74
2022/05/03 03:05:48;;;;;;;39.03;27.33;;;9.30;87.40;;;;;;5076713;28;20060;-74
2022/05/03 03:08:19;;;;;;;44.53;28.30;;;9.20;87.40;;;;;;5075597;28;20048;-74
2022/05/03 03:11:04;;;;;;;36.03;26.48;;;9.20;87.40;;;;;;5070438;28;20048;-74
2022/05/03 03:13:31;;;;;;;34.47;25.52;;;9.20;87.40;;;;;;5072632;28;20052;-74
2022/05/03 03:15:59;;;;;;;32.00;25.05;;;9.20;87.40;;;;;;5051735;28;20053;-74
2022/05/03 03:18:31;;;;;;;34.40;24.20;;;9.10;87.40;;;;;;5065043;28;20494;-74
2022/05/03 03:21:05;;;;;;;31.67;22.70;;;9.10;87.40;;;;;;5045888;28;20060;-74
2022/05/03 03:23:38;;;;;;;28.65;22.17;;;9.10;87.40;;;;;;5071692;28;20044;-74
2022/05/03 03:26:09;;;;;;;33.47;22.45;;;9.00;87.30;;;;;;5055700;28;20053;-74
2022/05/03 03:28:37;;;;;;;31.52;22.23;;;9.00;87.30;;;;;;5052098;28;20049;-74
2022/05/03 03:31:06;;;;;;;31.70;20.83;;;9.00;87.30;;;;;;5057055;28;20040;-74
2022/05/03 03:33:36;;;;;;;29.10;19.15;;;8.90;87.30;;;;;;5028823;28;20056;-74
2022/05/03 03:36:05;;;;;;;27.20;19.85;;;8.90;87.20;;;;;;5061623;28;20048;-74
2022/05/03 03:38:43;;;;;;;27.52;19.75;;;8.90;87.20;;;;;;5057442;28;20056;-74
2022/05/03 03:41:10;;;;;;;27.00;18.58;;;8.90;87.20;;;;;;5051615;28;20196;-74
2022/05/03 03:43:44;;;;;;;27.55;17.17;;;8.90;87.20;;;;;;5051910;28;20053;-74
2022/05/03 03:46:12;;;;;;;28.33;17.30;;;8.90;87.10;;;;;;5052650;28;20045;-74
2022/05/03 03:48:40;;;;;;;28.30;17.30;;;8.90;87.10;;;;;;5051691;28;20060;-74
2022/05/03 03:51:08;;;;;;;19.75;14.93;;;8.80;87.00;;;;;;5065680;28;20049;-75
2022/05/03 03:53:38;;;;;;;27.70;15.73;;;8.80;87.00;;;;;;5051522;28;20053;-74
2022/05/03 03:56:06;;;;;;;25.98;15.80;;;8.80;87.00;;;;;;5051610;28;20046;-74
2022/05/03 03:58:35;;;;;;;29.23;16.15;;;8.70;86.90;;;;;;5055345;28;20049;-74
2022/05/03 04:01:02;;;;;;;23.17;14.50;;;8.80;86.90;;;;;;5070972;28;20033;-74
2022/05/03 04:03:31;;;;;;;21.80;14.05;;;8.70;86.90;;;;;;5070323;28;20366;-74
2022/05/03 04:05:59;;;;;;;25.67;15.13;;;8.70;86.90;;;;;;5036134;28;20041;-74
2022/05/03 04:08:27;;;;;;;25.38;13.88;;;8.70;86.80;;;;;;5031006;28;20057;-74
2022/05/03 04:10:54;;;;;;;21.83;13.50;;;8.70;86.80;;;;;;5051584;28;20355;-74
2022/05/03 04:13:22;;;;;;;25.27;13.60;;;8.60;86.80;;;;;;5060137;28;20044;-74
2022/05/03 04:15:51;;;;;;;21.35;13.32;;;8.60;86.80;;;;;;5091952;28;20051;-74
2022/05/03 04:18:19;;;;;;;18.23;11.90;;;8.60;86.80;;;;;;5086653;28;20044;-74
2022/05/03 04:20:47;;;;;;;16.05;12.30;;;8.60;86.80;;;;;;5082547;28;20432;-74
2022/05/03 04:23:21;;;;;;;18.40;12.75;;;8.60;86.80;;;;;;5079672;28;20486;-74
2022/05/03 04:25:57;;;;;;;24.02;12.55;;;8.60;86.70;;;;;;5088562;28;20036;-74
2022/05/03 04:28:25;;;;;;;17.95;11.65;;;8.60;86.70;;;;;;5095324;28;20054;-74
2022/05/03 04:30:52;;;;;;;14.25;11.18;;;8.50;86.60;;;;;;5093013;28;20424;-74
2022/05/03 04:33:20;;;;;;;19.00;11.13;;;8.60;86.60;;;;;;5092600;28;20048;-74
2022/05/03 04:35:48;;;;;;;18.60;10.88;;;8.60;86.60;;;;;;5083585;28;20075;-74
2022/05/03 04:38:15;;;;;;;18.05;11.30;;;8.50;86.60;;;;;;5085890;28;20047;-74
2022/05/03 04:40:43;;;;;;;14.55;11.07;;;8.50;86.60;;;;;;5083527;28;20040;-74
2022/05/03 04:43:11;;;;;;;13.80;10.38;;;8.50;86.50;;;;;;5078724;28;20063;-75
2022/05/03 04:45:39;;;;;;;15.15;10.82;;;8.50;86.50;;;;;;5079520;28;20055;-74
2022/05/03 04:48:06;;;;;;;16.15;10.30;;;8.50;86.50;;;;;;5079715;28;20043;-74
2022/05/03 04:50:37;;;;;;;14.02;10.02;;;8.50;86.50;;;;;;5079791;28;20041;-74
2022/05/03 04:53:04;;;;;;;16.92;10.50;;;8.50;86.50;;;;;;5088773;28;20044;-74
2022/05/03 04:55:32;;;;;;;15.48;9.82;;;8.40;86.50;;;;;;5078778;28;20067;-75
2022/05/03 04:57:59;;;;;;;14.07;9.40;;;8.50;86.40;;;;;;5074436;28;20394;-73
2022/05/03 05:00:31;;;;;;;14.60;9.70;;;8.40;86.40;;;;;;5076554;28;20514;-74
2022/05/03 05:03:00;;;;;;;14.85;9.90;;;8.40;86.40;;;;;;5080248;28;20058;-73
2022/05/03 05:05:28;;;;;;;14.10;8.75;;;8.40;86.40;;;;;;5077349;28;20519;-74
2022/05/03 05:07:55;;;;;;;10.00;7.78;;;8.40;86.40;;;;;;5074272;28;20045;-74
2022/05/03 05:10:23;;;;;;;13.23;8.35;;;8.40;86.30;;;;;;5092332;28;20047;-75
2022/05/03 05:12:51;;;;;;;14.65;9.60;;;8.40;86.20;;;;;;5085793;28;20056;-74
2022/05/03 05:15:21;;;;;;;11.30;9.20;;;8.30;86.20;;;;;;5055335;28;20391;-74
2022/05/03 05:17:48;;;;;;;14.23;9.27;;;8.40;86.20;;;;;;5075084;28;20041;-74
2022/05/03 05:20:17;;;;;;;13.63;9.18;;;8.40;86.20;;;;;;5073206;28;20052;-74
2022/05/03 05:22:45;;;;;;;14.20;9.60;;;8.40;86.20;;;;;;5054794;28;20044;-74
2022/05/03 05:25:33;;;;;;;9.50;8.27;;;8.40;86.20;;;;;;5064386;28;20041;-74
2022/05/03 05:28:00;;;;;;;13.68;6.70;;;8.40;86.20;;;;;;5074187;28;20071;-74
2022/05/03 05:30:28;;;;;;;9.13;6.85;;;8.40;86.20;;;;;;5056849;28;20051;-74
2022/05/03 05:32:55;;;;;;;7.13;5.95;;;8.40;86.10;;;;;;5044106;28;20118;-74
2022/05/03 05:35:23;;;;;;;6.63;5.55;;;8.40;86.10;;;;;;5073290;28;20498;-74
2022/05/03 05:37:51;;;;;;;8.13;5.28;;;8.50;86.00;;;;;;5057677;28;20048;-74
2022/05/03 05:40:18;;;;;;;7.72;5.65;;;8.40;86.00;;;;;;5057713;28;20545;-74
2022/05/03 05:42:46;;;;;;;8.32;5.55;;;8.50;85.90;;;;;;5053756;28;20048;-74
2022/05/03 05:45:13;;;;;;;10.30;6.10;;;8.50;85.80;;;;;;5036181;28;20053;-74
2022/05/03 05:47:42;;;;;;;9.73;5.97;;;8.50;85.80;;;;;;5040275;28;20389;-74
2022/05/03 05:50:11;;;;;;;8.40;5.97;;;8.50;85.70;;;;;;5053570;28;20045;-74
2022/05/03 05:55:25;;;;;;;8.77;6.03;;;8.60;85.70;;;;;;5039344;28;20060;-75
2022/05/03 05:57:53;;;;;;;8.25;5.53;;;8.60;85.50;;;;;;5065742;28;20056;-74
2022/05/03 06:00:21;;;;;;;7.53;4.85;;;8.50;85.40;;;;;;5070582;28;20048;-75
2022/05/03 06:02:48;;;;;;;8.85;5.20;;;8.60;85.30;;;;;;5054906;28;20502;-74
2022/05/03 06:05:16;;;;;;;6.85;4.38;;;8.50;85.20;;;;;;5050943;28;20049;-74
2022/05/03 06:07:44;;;;;;;6.88;4.30;;;8.50;85.10;;;;;;5039087;28;20045;-74
2022/05/03 06:10:11;;;;;;;5.65;3.63;;;8.60;85.00;;;;;;5067468;28;20513;-74
2022/05/03 06:12:39;;;;;;;3.80;3.30;;;8.60;85.00;;;;;;5056983;28;20045;-74
2022/05/03 06:15:08;;;;;;;3.47;3.17;;;8.60;84.90;;;;;;5060860;28;20063;-80
2022/05/03 06:17:35;;;;;;;5.30;3.47;;;8.50;84.80;;;;;;5065272;28;20051;-74
2022/05/03 06:20:03;;;;;;;4.00;3.60;;;8.50;84.70;;;;;;5055294;28;20462;-74
2022/05/03 06:22:31;;;;;;;4.97;3.20;;;8.50;84.70;;;;;;5045176;28;20049;-74
2022/05/03 06:24:59;;;;;;;7.93;3.65;;;8.50;84.70;;;;;;5061434;28;20056;-73
2022/05/03 06:27:26;;;;;;;4.65;4.15;;;8.50;84.60;;;;;;5068818;28;20049;-73
2022/05/03 06:29:54;;;;;;;7.82;3.50;;;8.40;84.50;;;;;;5071021;28;20052;-74
2022/05/03 06:32:22;;;;;;;6.13;3.80;;;8.50;84.60;;;;;;5064780;28;20041;-73
2022/05/03 06:34:49;;;;;;;6.68;3.58;;;8.50;84.50;;;;;;5066224;28;20056;-74
2022/05/03 06:37:20;;;;;;;5.30;4.22;;;8.50;84.50;;;;;;5038470;28;20049;-73
2022/05/03 06:39:47;;;;;;;6.15;4.10;;;8.50;84.40;;;;;;5043129;28;20045;-74
2022/05/03 06:42:16;;;;;;;8.23;4.45;;;8.50;84.40;;;;;;5058057;28;20051;-74
2022/05/03 06:44:43;;;;;;;5.32;4.25;;;8.50;84.40;;;;;;5044471;28;20063;-73
2022/05/03 06:47:12;;;;;;;9.20;4.82;;;8.50;84.30;;;;;;5060276;28;20429;-73
2022/05/03 06:49:39;;;;;;;9.70;5.32;;;8.60;84.30;;;;;;5065560;28;20055;-73
2022/05/03 06:52:07;;;;;;;7.07;5.03;;;8.60;84.30;;;;;;5052833;28;20045;-73
2022/05/03 06:54:34;;;;;;;8.13;5.40;;;8.60;84.30;;;;;;5064046;28;20525;-73
2022/05/03 06:57:02;;;;;;;10.77;5.80;;;8.70;84.30;;;;;;5062888;28;20044;-73
2022/05/03 06:59:30;;;;;;;9.00;5.82;;;8.70;84.30;;;;;;5063623;28;20044;-74
2022/05/03 07:01:57;;;;;;;12.80;6.22;;;8.80;84.40;;;;;;5059809;28;20057;-73
2022/05/03 07:04:25;;;;;;;7.15;5.57;;;8.80;84.40;;;;;;5056366;28;20402;-73
2022/05/03 07:06:53;;;;;;;8.57;6.10;;;8.80;84.40;;;;;;5059132;28;20494;-73
2022/05/03 07:09:21;;;;;;;8.57;5.90;;;8.80;84.40;;;;;;5071511;28;20048;-81
2022/05/03 07:11:48;;;;;;;7.90;6.93;;;8.80;84.50;;;;;;5072624;28;20047;-73
2022/05/03 07:14:16;;;;;;;8.98;6.78;;;8.80;84.50;;;;;;5084568;28;20048;-74
2022/05/03 07:16:44;;;;;;;8.60;6.60;;;8.80;84.60;;;;;;5081758;28;20052;-74
2022/05/03 07:24:45;;;;;;;7.22;6.45;;;8.80;84.70;;;;;;5085842;28;20056;-74
2022/05/03 07:27:13;;;;;;;8.93;6.47;;;8.80;84.70;;;;;;5088610;28;20409;-74
2022/05/03 07:29:41;;;;;;;12.13;7.30;;;8.80;84.70;;;;;;5091051;28;20532;-74
2022/05/03 07:32:08;;;;;;;10.38;6.78;;;8.80;84.70;;;;;;5091211;28;20044;-74
2022/05/03 07:34:36;;;;;;;16.08;6.60;;;8.80;84.70;;;;;;5079855;28;20056;-74
2022/05/03 07:37:03;;;;;;;11.65;6.88;;;8.80;84.70;;;;;;5090521;28;20052;-73
2022/05/03 07:39:31;;;;;;;7.20;5.45;;;8.80;84.70;;;;;;5086342;28;20036;-74
2022/05/03 07:41:59;;;;;;;9.25;6.47;;;8.80;84.70;;;;;;5072017;28;20052;-73
2022/05/03 07:44:27;;;;;;;11.23;6.90;;;8.80;84.60;;;;;;5071926;28;20040;-73
2022/05/03 07:46:54;;;;;;;12.63;6.55;;;8.80;84.60;;;;;;5072107;28;20057;-73
2022/05/03 07:49:22;;;;;;;10.45;5.80;;;8.80;84.70;;;;;;5072138;28;20051;-73
2022/05/03 07:51:49;;;;;;;12.40;6.82;;;8.80;84.60;;;;;;5077664;28;20036;-74
2022/05/03 07:54:17;;;;;;;20.13;7.70;;;8.80;84.60;;;;;;5090755;28;20051;-74
2022/05/03 07:56:44;;;;;;;15.13;7.10;;;8.80;84.70;;;;;;5090650;28;20055;-74
2022/05/03 07:59:12;;;;;;;14.18;7.68;;;8.90;84.70;;;;;;5092134;28;20048;-74
2022/05/03 08:01:41;;;;;;;10.90;7.18;;;8.90;84.70;;;;;;5091930;28;20048;-74
2022/05/03 08:04:09;;;;;;;12.23;7.60;;;9.00;84.80;;;;;;5090037;28;20603;-75
2022/05/03 08:06:37;;;;;;;11.02;7.72;;;9.00;84.80;;;;;;5092014;28;20048;-75
2022/05/03 08:09:05;;;;;;;11.63;7.63;;;9.00;84.70;;;;;;5090937;28;20059;-74
2022/05/03 08:11:32;;;;;;;14.57;7.55;;;9.10;84.70;;;;;;5091716;28;20044;-74
2022/05/03 08:14:00;;;;;;;10.80;7.70;;;9.10;84.70;;;;;;5077444;28;20375;-74
2022/05/03 08:16:30;;;;;;;13.73;7.97;;;9.20;84.70;;;;;;5071778;28;20045;-74
2022/05/03 08:18:59;;;;;;;12.07;7.70;;;9.30;84.60;;;;;;5071736;28;20036;-74
2022/05/03 08:21:27;;;;;;;15.13;8.52;;;9.30;84.60;;;;;;5029342;28;20056;-75
2022/05/03 08:23:55;;;;;;;12.07;7.53;;;9.30;84.50;;;;;;5048446;28;20064;-75
2022/05/03 08:26:23;;;;;;;14.80;7.53;;;9.40;84.40;;;;;;5033925;28;20060;-74
2022/05/03 08:28:51;;;;;;;14.13;7.90;;;9.50;84.30;;;;;;5062843;28;20044;-74
2022/05/03 08:31:19;;;;;;;16.83;8.02;;;9.60;84.20;;;;;;5071642;28;20048;-74
2022/05/03 08:33:47;;;;;;;12.95;8.77;;;9.60;84.10;;;;;;5071158;28;20056;-73
2022/05/03 08:36:15;;;;;;;12.95;7.88;;;9.70;84.10;;;;;;5070416;28;20052;-74
2022/05/03 08:44:15;;;;;;;10.32;7.80;;;9.90;83.90;;;;;;5069491;28;20056;-74
2022/05/03 08:46:45;;;;;;;11.48;7.55;;;10.10;83.70;;;;;;5070840;28;20055;-75
2022/05/03 08:49:13;;;;;;;10.40;7.95;;;10.20;83.50;;;;;;5070909;28;20055;-76
2022/05/03 08:51:43;;;;;;;12.60;8.00;;;10.20;83.20;;;;;;5054101;28;20075;-80
2022/05/03 08:54:11;;;;;;;10.45;8.00;;;10.30;83.20;;;;;;5046801;28;20052;-78
2022/05/03 08:56:40;;;;;;;15.98;8.30;;;10.30;83.20;;;;;;5071368;28;20049;-79
2022/05/03 08:59:08;;;;;;;12.32;7.70;;;10.40;83.20;;;;;;5069577;28;20375;-79
2022/05/03 09:01:39;;;;;;;10.52;7.13;;;10.50;83.10;;;;;;5071164;28;20052;-78
2022/05/03 09:04:06;;;;;;;11.05;7.65;;;10.60;82.70;;;;;;5053213;28;20060;-78
2022/05/03 09:06:47;;;;;;;9.07;7.50;;;10.60;82.50;;;;;;5071151;28;20487;-78
2022/05/03 09:09:18;;;;;;;11.65;7.60;;;10.70;82.40;;;;;;5073575;28;20131;-78
2022/05/03 09:11:48;;;;;;;10.55;7.75;;;10.70;82.30;;;;;;5073102;28;20075;-78
2022/05/03 09:14:39;;;;;;;9.93;8.07;;;10.80;82.10;;;;;;5076349;28;20052;-78
2022/05/03 09:17:07;;;;;;;12.45;7.65;;;11.00;82.00;;;;;;5074495;28;20486;-78
2022/05/03 09:19:35;;;;;;;12.23;7.70;;;11.00;81.60;;;;;;5074480;28;20486;-78
2022/05/03 09:25:06;;;;;;;11.98;8.23;;;11.10;80.80;;;;;;5074331;28;20051;-78
2022/05/03 09:27:34;;;;;;;13.80;8.27;;;11.10;80.80;;;;;;5054526;28;20045;-78
2022/05/03 09:30:08;;;;;;;12.10;8.25;;;11.10;80.70;;;;;;5054521;28;20060;-78
2022/05/03 09:32:47;;;;;;;12.13;7.70;;;11.20;80.50;;;;;;5054467;28;20402;-78
2022/05/03 09:35:34;;;;;;;13.02;7.72;;;11.20;80.30;;;;;;5054404;28;20068;-78
2022/05/03 09:38:04;;;;;;;11.43;7.57;;;11.30;80.10;;;;;;5054316;28;20387;-77
2022/05/03 09:40:39;;;;;;;12.60;8.23;;;11.30;79.90;;;;;;5036539;28;20398;-77
2022/05/03 09:43:06;;;;;;;17.52;8.52;;;11.30;79.90;;;;;;5036235;28;20049;-77
2022/05/03 09:45:35;;;;;;;9.77;7.95;;;11.40;79.80;;;;;;5054229;28;20048;-77
2022/05/03 09:48:04;;;;;;;13.05;8.27;;;11.40;79.50;;;;;;5054113;28;20045;-77
2022/05/03 09:50:41;;;;;;;12.55;8.80;;;11.40;79.20;;;;;;5036427;28;20053;-77
2022/05/03 09:53:18;;;;;;;15.10;8.90;;;11.40;79.10;;;;;;5035935;28;20052;-77
2022/05/03 09:55:48;;;;;;;15.38;9.77;;;11.40;79.30;;;;;;5036296;28;20045;-77
2022/05/03 09:58:18;;;;;;;18.63;9.93;;;11.50;79.30;;;;;;5019854;28;20060;-77
2022/05/03 10:00:48;;;;;;;17.25;9.98;;;11.60;79.30;;;;;;5054036;28;20049;-77
2022/05/03 10:03:16;;;;;;;13.35;9.63;;;11.70;79.30;;;;;;5054019;28;20053;-77
2022/05/03 10:05:47;;;;;;;13.38;10.18;;;11.80;78.80;;;;;;5054084;28;20053;-77
2022/05/03 10:08:17;;;;;;;13.73;11.07;;;11.80;78.50;;;;;;5053738;28;20400;-79
2022/05/03 10:10:56;;;;;;;17.70;11.38;;;11.90;78.50;;;;;;5054104;28;20049;-77
2022/05/03 10:13:26;;;;;;;18.35;11.40;;;12.00;78.10;;;;;;5046915;28;20048;-77
2022/05/03 10:21:37;;;;;;;18.30;12.35;;;12.20;78.00;;;;;;5073197;28;20048;-76
2022/05/03 10:24:09;;;;;;;16.83;14.60;;;12.30;77.60;;;;;;5086309;28;20048;-77
2022/05/03 10:27:01;;;;;;;14.85;11.73;;;12.40;77.50;;;;;;5085097;28;20428;-76
2022/05/03 10:29:35;;;;;;;14.48;10.85;;;12.50;76.90;;;;;;5084006;28;20055;-77
2022/05/03 10:32:15;;;;;;;13.90;10.75;;;12.70;76.80;;;;;;5088004;28;20036;-79
2022/05/03 10:34:56;;;;;;;14.88;11.82;;;12.70;76.80;;;;;;5086018;28;20044;-79
2022/05/03 10:37:33;;;;;;;16.23;11.75;;;12.80;76.50;;;;;;5084255;28;20669;-79
2022/05/03 10:40:08;;;;;;;15.73;10.63;;;12.90;76.10;;;;;;5073332;28;20548;-79
2022/05/03 10:42:35;;;;;;;14.77;10.95;;;12.90;75.90;;;;;;5085131;28;20051;-79
2022/05/03 10:45:13;;;;;;;13.98;11.52;;;12.90;75.40;;;;;;5084577;28;20051;-78
2022/05/03 10:47:47;;;;;;;12.85;10.25;;;13.00;75.40;;;;;;5093782;28;20048;-79
2022/05/03 10:50:15;;;;;;;13.23;9.93;;;13.00;75.50;;;;;;5072961;28;20044;-79
2022/05/03 10:52:50;;;;;;;13.77;9.20;;;13.20;75.30;;;;;;5073263;28;20044;-79
2022/05/03 10:55:18;;;;;;;11.85;8.63;;;13.30;75.10;;;;;;5073291;28;20044;-79
2022/05/03 10:58:20;;;;;;;12.65;9.23;;;13.30;74.20;;;;;;5104176;28;20048;-79
2022/05/03 11:01:03;;;;;;;11.77;9.52;;;13.30;74.40;;;;;;5104237;28;20508;-79
2022/05/03 11:03:33;;;;;;;11.38;8.40;;;13.30;74.50;;;;;;5093553;28;20047;-79
2022/05/03 11:06:19;;;;;;;12.63;8.73;;;13.40;74.20;;;;;;5099362;28;20425;-80
2022/05/03 11:09:08;;;;;;;13.73;9.32;;;13.50;73.90;;;;;;5095924;28;20055;-78
2022/05/03 11:11:44;;;;;;;15.23;9.77;;;13.50;73.70;;;;;;5095884;28;20043;-78
2022/05/03 11:14:21;;;;;;;13.57;8.70;;;13.60;72.90;;;;;;5079957;28;20064;-79
2022/05/03 11:17:05;;;;;;;11.32;9.07;;;13.60;72.30;;;;;;5072932;28;20048;-79
2022/05/03 11:19:37;;;;;;;13.23;8.90;;;13.50;72.60;;;;;;5072879;28;20041;-79
2022/05/03 11:22:13;;;;;;;11.70;8.80;;;13.60;72.80;;;;;;5054775;28;20064;-79
2022/05/03 11:24:44;;;;;;;11.77;8.77;;;13.60;72.70;;;;;;5072455;28;20636;-79
2022/05/03 11:27:14;;;;;;;13.30;9.05;;;13.60;72.50;;;;;;5072657;28;20045;-79
2022/05/03 11:29:44;;;;;;;13.63;9.65;;;13.50;72.30;;;;;;5065141;28;20047;-79
2022/05/03 11:32:12;;;;;;;13.32;9.10;;;13.40;72.60;;;;;;5046051;28;20045;-87
2022/05/03 11:34:39;;;;;;;16.40;9.80;;;13.40;72.80;;;;;;5057472;28;20049;-76
2022/05/03 11:37:07;;;;;;;17.80;9.93;;;13.30;72.90;;;;;;5071121;28;20052;-75
2022/05/03 11:39:36;;;;;;;13.23;9.70;;;13.30;73.10;;;;;;5054464;28;20067;-75
2022/05/03 11:42:13;;;;;;;11.50;9.90;;;13.30;73.30;;;;;;5062860;28;20048;-75
2022/05/03 11:44:45;;;;;;;12.85;10.07;;;13.30;73.50;;;;;;5050352;28;20059;-75
2022/05/03 11:47:14;;;;;;;12.85;9.77;;;13.20;73.50;;;;;;5058439;28;20412;-75
2022/05/03 11:49:45;;;;;;;19.08;10.73;;;13.30;73.70;;;;;;5071447;28;20040;-75
2022/05/03 11:57:47;;;;;;;14.10;9.88;;;13.40;74.00;;;;;;5061730;28;20044;-81
2022/05/03 12:00:15;;;;;;;13.90;9.85;;;13.60;73.70;;;;;;5050290;28;20521;-77
2022/05/03 12:02:45;;;;;;;17.95;10.10;;;13.80;73.30;;;;;;5068617;28;20521;-77
2022/05/03 12:05:18;;;;;;;11.23;8.27;;;13.90;72.90;;;;;;5055879;28;20564;-77
2022/05/03 12:07:55;;;;;;;13.32;9.18;;;14.00;71.60;;;;;;5057897;28;20056;-76
2022/05/03 12:10:30;;;;;;;12.60;9.48;;;14.10;71.70;;;;;;5049081;28;20037;-76
2022/05/03 12:13:15;;;;;;;11.75;8.48;;;14.30;71.90;;;;;;5059052;28;20045;-75
2022/05/03 12:15:49;;;;;;;13.88;8.55;;;14.60;71.50;;;;;;5056600;28;20418;-76
2022/05/03 12:18:23;;;;;;;12.80;8.00;;;14.90;70.40;;;;;;5049739;28;20052;-75
2022/05/03 12:20:55;;;;;;;8.75;7.80;;;15.10;69.80;;;;;;5035919;28;20040;-76
2022/05/03 12:23:30;;;;;;;9.55;7.25;;;15.30;69.50;;;;;;5043755;28;20045;-76
2022/05/03 12:26:00;;;;;;;11.60;6.65;;;15.60;68.20;;;;;;5050184;28;20041;-76
2022/05/03 12:28:46;;;;;;;9.80;6.40;;;15.70;67.40;;;;;;5044517;28;20051;-76
2022/05/03 12:31:19;;;;;;;7.50;6.65;;;15.90;65.90;;;;;;5055035;28;20072;-77
2022/05/03 12:33:55;;;;;;;11.73;6.78;;;16.10;65.40;;;;;;5055752;28;20075;-75
2022/05/03 12:36:36;;;;;;;9.38;6.70;;;16.20;64.90;;;;;;5045881;28;20052;-75
2022/05/03 12:39:18;;;;;;;9.68;6.10;;;16.30;64.20;;;;;;5048224;28;20045;-76
2022/05/03 12:42:00;;;;;;;7.25;6.10;;;16.30;62.90;;;;;;5059502;28;20045;-76
2022/05/03 12:44:30;;;;;;;10.20;5.85;;;16.50;63.90;;;;;;5059680;28;20044;-74
2022/05/03 12:47:09;;;;;;;6.85;5.72;;;16.80;63.80;;;;;;5040410;28;20060;-77
2022/05/03 12:49:37;;;;;;;8.02;5.68;;;17.00;62.70;;;;;;5053772;28;20052;-77
2022/05/03 12:52:06;;;;;;;7.43;6.50;;;17.10;62.50;;;;;;5035259;28;20402;-76
2022/05/03 12:54:42;;;;;;;8.15;5.53;;;17.30;62.20;;;;;;5068471;28;20055;-76
2022/05/03 12:59:57;;;;;;;9.35;5.65;;;17.30;60.70;;;;;;5066802;28;20045;-77
2022/05/03 13:02:25;;;;;;;9.52;6.25;;;17.20;60.20;;;;;;5052390;28;20621;-76
2022/05/03 13:04:53;;;;;;;9.02;6.20;;;17.10;61.20;;;;;;5070239;28;20079;-76
2022/05/03 13:07:21;;;;;;;8.93;6.15;;;17.10;60.40;;;;;;5069797;28;20119;-77
2022/05/03 13:09:48;;;;;;;9.85;6.32;;;16.80;60.90;;;;;;5052824;28;20055;-77
2022/05/03 13:12:17;;;;;;;11.95;7.63;;;16.80;61.00;;;;;;5048643;28;20056;-76
2022/05/03 13:14:45;;;;;;;16.75;10.57;;;16.60;61.80;;;;;;5042823;28;20048;-76
2022/05/03 13:17:15;;;;;;;12.98;7.93;;;16.80;62.10;;;;;;5056159;28;20390;-76
2022/05/03 13:19:43;;;;;;;12.52;7.32;;;16.90;62.10;;;;;;5053970;28;20067;-76
2022/05/03 13:22:10;;;;;;;12.02;7.10;;;17.00;61.90;;;;;;5075899;28;20056;-76
2022/05/03 13:24:38;;;;;;;9.75;6.68;;;17.10;62.00;;;;;;5077967;28;20060;-76
2022/05/03 13:27:06;;;;;;;10.85;7.00;;;17.20;61.30;;;;;;5090129;28;20059;-76
2022/05/03 13:29:33;;;;;;;11.75;7.22;;;17.30;61.40;;;;;;5092178;28;20044;-76
2022/05/03 13:32:02;;;;;;;10.40;6.90;;;17.30;61.20;;;;;;5092996;28;20393;-76
2022/05/03 13:34:30;;;;;;;13.52;7.35;;;17.30;60.80;;;;;;5092659;28;20044;-76
2022/05/03 13:42:30;;;;;;;10.32;7.60;;;17.00;61.20;;;;;;5092824;28;20075;-76
2022/05/03 13:44:58;;;;;;;10.70;7.95;;;17.10;61.50;;;;;;5092918;28;20527;-76
2022/05/03 13:47:25;;;;;;;14.93;8.55;;;17.10;61.30;;;;;;5092614;28;20063;-75
2022/05/03 13:49:53;;;;;;;13.25;8.73;;;17.10;61.50;;;;;;5091576;28;20055;-74
2022/05/03 13:52:22;;;;;;;12.18;8.75;;;17.00;61.50;;;;;;5091964;28;20055;-75
2022/05/03 13:54:49;;;;;;;12.35;8.60;;;17.00;61.90;;;;;;5093063;28;20044;-75